createdAt,value
2018-03-11T00:01:54.948Z,112.07
2018-03-11T00:04:23.236Z,101.10
2018-03-11T00:06:51.564Z,108.80
2018-03-11T00:09:19.854Z,110.17
2018-03-11T00:11:48.152Z,115.10
2018-03-11T00:14:17.220Z,96.27
2018-03-11T00:16:45.538Z,105.30
2018-03-11T00:19:14.624Z,106.23
2018-03-11T00:21:42.950Z,111.90
2018-03-11T00:24:11.297Z,110.37
2018-03-11T00:26:40.379Z,108.53
2018-03-11T00:29:08.678Z,111.13
2018-03-11T00:31:37.754Z,119.47
2018-03-11T00:34:06.060Z,102.57
2018-03-11T00:36:35.150Z,106.57
2018-03-11T00:39:03.460Z,105.53
2018-03-11T00:41:31.753Z,109.43
2018-03-11T00:44:00.054Z,93.67
2018-03-11T00:46:28.346Z,96.90
2018-03-11T00:48:56.665Z,99.83
2018-03-11T00:51:25.730Z,97.53
2018-03-11T00:53:54.031Z,97.50
2018-03-11T00:56:22.329Z,91.50
2018-03-11T00:58:51.389Z,100.77
2018-03-11T01:01:19.690Z,91.27
2018-03-11T01:03:48.006Z,90.33
2018-03-11T01:06:17.096Z,81.57
2018-03-11T01:08:46.162Z,90.70
2018-03-11T01:11:14.460Z,85.10
2018-03-11T01:13:42.760Z,78.70
2018-03-11T01:16:11.826Z,71.97
2018-03-11T01:18:40.127Z,73.90
2018-03-11T01:21:08.435Z,77.50
2018-03-11T01:23:36.748Z,75.27
2018-03-11T01:26:05.042Z,71.60
2018-03-11T01:28:33.336Z,68.50
2018-03-11T01:31:01.630Z,74.03
2018-03-11T01:33:29.929Z,63.47
2018-03-11T01:35:58.988Z,69.83
2018-03-11T01:38:27.295Z,67.27
2018-03-11T01:40:55.618Z,64.10
2018-03-11T01:43:23.916Z,68.60
2018-03-11T01:45:52.288Z,67.50
2018-03-11T01:48:20.604Z,73.60
2018-03-11T01:50:48.900Z,65.27
2018-03-11T01:53:17.212Z,75.00
2018-03-11T01:55:46.869Z,79.43
2018-03-11T01:58:15.160Z,87.07
2018-03-11T02:00:43.464Z,84.40
2018-03-11T02:03:12.542Z,81.10
2018-03-11T02:05:40.839Z,80.80
2018-03-11T02:08:09.992Z,81.23
2018-03-11T02:10:38.306Z,87.13
2018-03-11T02:13:06.614Z,84.13
2018-03-11T02:15:34.904Z,85.17
2018-03-11T02:18:03.970Z,84.20
2018-03-11T02:20:32.276Z,81.43
2018-03-11T02:23:00.570Z,88.20
2018-03-11T02:25:29.632Z,83.30
2018-03-11T02:27:57.936Z,92.03
2018-03-11T02:30:26.263Z,103.23
2018-03-11T02:32:54.573Z,103.60
2018-03-11T02:35:22.881Z,107.97
2018-03-11T02:37:51.189Z,108.63
2018-03-11T02:40:19.506Z,109.37
2018-03-11T02:42:48.658Z,118.57
2018-03-11T02:45:17.721Z,113.87
2018-03-11T02:47:46.029Z,138.80
2018-03-11T02:50:14.351Z,117.50
2018-03-11T02:52:42.653Z,131.17
2018-03-11T02:55:11.034Z,107.97
2018-03-11T02:57:39.345Z,119.27
2018-03-11T03:00:07.662Z,122.90
2018-03-11T03:02:36.744Z,107.63
2018-03-11T03:05:05.807Z,105.43
2018-03-11T03:07:34.102Z,104.20
2018-03-11T03:10:02.409Z,101.03
2018-03-11T03:12:31.486Z,101.50
2018-03-11T03:14:59.802Z,90.07
2018-03-11T03:17:28.863Z,88.10
2018-03-11T03:19:57.186Z,91.57
2018-03-11T03:22:25.497Z,90.67
2018-03-11T03:24:54.565Z,98.57
2018-03-11T03:27:23.641Z,89.80
2018-03-11T03:29:51.953Z,91.93
2018-03-11T03:32:20.253Z,76.80
2018-03-11T03:34:48.567Z,90.93
2018-03-11T03:37:16.865Z,94.43
2018-03-11T03:39:45.159Z,94.07
2018-03-11T03:42:14.233Z,86.40
2018-03-11T03:44:42.529Z,75.40
2018-03-11T03:47:10.848Z,88.20
2018-03-11T03:49:39.144Z,85.57
2018-03-11T03:52:08.457Z,86.30
2018-03-11T03:54:36.749Z,91.87
2018-03-11T03:57:05.041Z,97.97
2018-03-11T03:59:33.340Z,97.57
2018-03-11T04:02:01.653Z,94.73
2018-03-11T04:04:30.726Z,81.40
2018-03-11T04:06:59.025Z,88.13
2018-03-11T04:09:28.185Z,96.33
2018-03-11T04:11:56.523Z,91.77
2018-03-11T04:14:24.833Z,91.00
2018-03-11T04:16:53.142Z,89.93
2018-03-11T04:19:21.466Z,93.77
2018-03-11T04:21:49.769Z,86.97
2018-03-11T04:24:18.066Z,106.73
2018-03-11T04:26:46.374Z,137.27
2018-03-11T04:29:14.669Z,92.33
2018-03-11T04:31:42.960Z,101.47
2018-03-11T04:34:12.037Z,122.43
2018-03-11T04:36:40.359Z,116.90
2018-03-11T04:39:08.723Z,113.17
2018-03-11T04:41:37.817Z,98.80
2018-03-11T04:44:06.887Z,95.97
2018-03-11T04:46:35.192Z,93.53
2018-03-11T04:49:03.741Z,93.37
2018-03-11T04:51:32.047Z,94.93
2018-03-11T04:54:00.349Z,94.67
2018-03-11T04:56:29.403Z,101.70
2018-03-11T04:58:57.716Z,97.17
2018-03-11T05:01:26.023Z,84.63
2018-03-11T05:03:55.097Z,95.30
2018-03-11T05:06:23.395Z,89.90
2018-03-11T05:08:52.467Z,110.10
2018-03-11T05:11:20.767Z,88.13
2018-03-11T05:13:49.067Z,95.73
2018-03-11T05:16:18.117Z,94.20
2018-03-11T05:18:46.425Z,79.90
2018-03-11T05:21:14.975Z,90.87
2018-03-11T05:23:43.429Z,83.93
2018-03-11T05:26:11.711Z,79.17
2018-03-11T05:28:40.005Z,82.70
2018-03-11T05:31:08.299Z,84.93
2018-03-11T05:33:36.623Z,106.87
2018-03-11T05:36:04.954Z,103.83
2018-03-11T05:38:33.257Z,105.87
2018-03-11T05:41:01.567Z,164.53
2018-03-11T05:43:29.877Z,188.93
2018-03-11T05:45:58.939Z,120.00
2018-03-11T05:48:27.237Z,101.13
2018-03-11T05:50:55.542Z,167.30
2018-03-11T05:53:23.964Z,239.43
2018-03-11T05:55:52.980Z,108.67
2018-03-11T05:58:21.283Z,157.87
2018-03-11T06:00:49.590Z,226.60
2018-03-11T06:03:17.891Z,197.57
2018-03-11T06:05:46.243Z,279.23
2018-03-11T06:08:15.395Z,200.70
2018-03-11T06:10:43.717Z,128.70
2018-03-11T06:13:12.785Z,109.23
2018-03-11T06:15:41.079Z,166.20
2018-03-11T06:18:09.381Z,234.30
2018-03-11T06:20:38.450Z,306.43
2018-03-11T06:23:06.731Z,186.27
2018-03-11T06:25:35.047Z,145.07
2018-03-11T06:28:04.117Z,117.03
2018-03-11T06:30:32.431Z,128.33
2018-03-11T06:33:01.489Z,104.90
2018-03-11T06:35:29.795Z,109.97
2018-03-11T06:37:58.097Z,138.30
2018-03-11T06:40:27.159Z,139.80
2018-03-11T06:42:55.485Z,112.87
2018-03-11T06:45:23.845Z,156.37
2018-03-11T06:47:52.906Z,123.07
2018-03-11T06:50:21.203Z,95.73
2018-03-11T06:52:49.507Z,115.10
2018-03-11T06:55:17.819Z,128.40
2018-03-11T06:57:46.135Z,232.67
2018-03-11T07:00:14.448Z,147.30
2018-03-11T07:02:42.753Z,169.63
2018-03-11T07:05:11.068Z,173.60
2018-03-11T07:07:39.358Z,111.47
2018-03-11T07:10:07.655Z,111.77
2018-03-11T07:12:35.959Z,147.83
2018-03-11T07:15:04.964Z,171.63
2018-03-11T07:17:34.047Z,187.80
2018-03-11T07:20:02.350Z,222.40
2018-03-11T07:22:31.434Z,196.27
2018-03-11T07:24:59.744Z,185.43
2018-03-11T07:27:28.058Z,150.90
2018-03-11T07:29:56.348Z,136.07
2018-03-11T07:32:24.672Z,105.13
2018-03-11T07:34:53.728Z,72.43
2018-03-11T07:37:22.026Z,88.00
2018-03-11T07:39:50.317Z,85.43
2018-03-11T07:42:18.606Z,123.67
2018-03-11T07:44:46.914Z,82.87
2018-03-11T07:47:15.219Z,93.47
2018-03-11T07:49:43.510Z,92.10
2018-03-11T07:52:11.816Z,68.53
2018-03-11T07:54:40.146Z,84.70
2018-03-11T07:57:08.459Z,103.27
2018-03-11T07:59:36.752Z,98.10
2018-03-11T08:02:05.086Z,76.07
2018-03-11T08:04:34.172Z,92.83
2018-03-11T08:07:03.262Z,105.17
2018-03-11T08:09:31.582Z,89.70
2018-03-11T08:11:59.874Z,85.00
2018-03-11T08:14:28.171Z,84.73
2018-03-11T08:16:56.480Z,78.43
2018-03-11T08:19:24.781Z,98.83
2018-03-11T08:24:26.105Z,95.33
2018-03-11T08:26:54.429Z,94.33
2018-03-11T08:29:23.499Z,77.73
2018-03-11T08:31:51.965Z,96.60
2018-03-11T08:34:20.270Z,79.67
2018-03-11T08:36:48.600Z,76.23
2018-03-11T08:39:16.908Z,76.87
2018-03-11T08:41:45.221Z,96.37
2018-03-11T08:44:13.682Z,83.77
2018-03-11T08:46:42.011Z,67.17
2018-03-11T08:49:11.102Z,73.53
2018-03-11T08:51:40.180Z,73.50
2018-03-11T08:54:08.529Z,76.87
2018-03-11T08:56:36.850Z,72.50
2018-03-11T08:59:05.170Z,72.87
2018-03-11T09:01:33.491Z,65.73
2018-03-11T09:04:01.804Z,64.20
2018-03-11T09:06:30.128Z,65.93
2018-03-11T09:08:58.505Z,70.70
2018-03-11T09:11:26.916Z,73.43
2018-03-11T09:13:55.227Z,77.43
2018-03-11T09:16:23.547Z,76.50
2018-03-11T09:18:52.645Z,81.90
2018-03-11T09:21:21.774Z,101.70
2018-03-11T09:23:50.117Z,87.33
2018-03-11T09:26:19.223Z,105.50
2018-03-11T09:28:47.567Z,96.10
2018-03-11T09:31:15.866Z,88.60
2018-03-11T09:33:44.191Z,88.77
2018-03-11T09:36:12.503Z,98.10
2018-03-11T09:38:40.809Z,101.77
2018-03-11T09:41:09.249Z,94.27
2018-03-11T09:43:38.290Z,96.40
2018-03-11T09:46:06.612Z,96.10
2018-03-11T09:48:34.933Z,93.87
2018-03-11T09:51:03.250Z,97.83
2018-03-11T09:53:32.356Z,104.50
2018-03-11T09:56:01.490Z,97.20
2018-03-11T09:58:29.787Z,103.53
2018-03-11T10:00:58.104Z,89.07
2018-03-11T10:03:26.469Z,104.17
2018-03-11T10:05:54.786Z,91.30
2018-03-11T10:10:58.364Z,81.50
2018-03-11T10:13:26.725Z,78.83
2018-03-11T10:15:55.068Z,75.63
2018-03-11T10:18:23.390Z,72.00
2018-03-11T10:20:51.719Z,70.60
2018-03-11T10:23:20.056Z,69.43
2018-03-11T10:25:48.372Z,85.67
2018-03-11T10:28:16.697Z,65.20
2018-03-11T10:30:45.787Z,60.50
2018-03-11T10:33:14.870Z,68.43
2018-03-11T10:35:43.208Z,65.80
2018-03-11T10:38:11.562Z,60.70
2018-03-11T10:40:39.896Z,58.53
2018-03-11T10:43:08.232Z,53.47
2018-03-11T10:45:36.570Z,54.10
2018-03-11T10:48:08.366Z,55.57
2018-03-11T10:50:37.472Z,50.90
2018-03-11T10:53:05.784Z,56.13
2018-03-11T10:55:34.925Z,45.47
2018-03-11T10:58:03.228Z,48.87
2018-03-11T11:00:37.704Z,43.60
2018-03-11T11:03:22.851Z,43.60
2018-03-11T11:05:51.167Z,41.87
2018-03-11T11:08:19.503Z,42.17
2018-03-11T11:10:52.690Z,41.87
2018-03-11T11:13:21.606Z,39.23
2018-03-11T11:15:50.349Z,39.27
2018-03-11T11:18:19.872Z,38.37
2018-03-11T11:20:48.961Z,39.20
2018-03-11T11:23:17.286Z,40.50
2018-03-11T11:25:45.609Z,40.83
2018-03-11T11:28:13.943Z,38.40
2018-03-11T11:30:42.266Z,37.87
2018-03-11T11:33:10.584Z,37.50
2018-03-11T11:35:39.750Z,32.70
2018-03-11T11:38:08.068Z,35.63
2018-03-11T11:40:38.087Z,33.33
2018-03-11T11:43:06.428Z,35.73
2018-03-11T11:45:34.742Z,34.73
2018-03-11T11:48:03.052Z,31.00
2018-03-11T11:50:31.405Z,26.90
2018-03-11T11:52:59.724Z,27.47
2018-03-11T11:55:28.031Z,26.10
2018-03-11T11:57:56.363Z,28.07
2018-03-11T12:00:25.459Z,26.27
2018-03-11T12:02:54.598Z,26.20
2018-03-11T12:05:22.960Z,26.13
2018-03-11T12:07:51.258Z,25.40
2018-03-11T12:10:19.578Z,27.10
2018-03-11T12:12:47.919Z,26.20
2018-03-11T12:15:16.262Z,27.27
2018-03-11T12:17:44.586Z,24.83
2018-03-11T12:20:13.013Z,26.33
2018-03-11T12:22:41.351Z,18.20
2018-03-11T12:25:09.688Z,17.87
2018-03-11T12:27:38.032Z,14.97
2018-03-11T12:30:06.517Z,11.90
2018-03-11T12:32:34.843Z,11.10
2018-03-11T12:35:03.920Z,13.20
2018-03-11T12:37:33.020Z,11.00
2018-03-11T12:40:01.339Z,10.30
2018-03-11T12:42:30.432Z,10.83
2018-03-11T12:44:59.522Z,13.27
2018-03-11T12:47:27.857Z,12.40
2018-03-11T12:49:56.180Z,12.73
2018-03-11T12:52:24.520Z,13.53
2018-03-11T12:54:53.175Z,13.00
2018-03-11T12:57:22.311Z,11.80
2018-03-11T12:59:51.097Z,11.60
2018-03-11T13:02:19.443Z,11.97
2018-03-11T13:04:48.527Z,11.00
2018-03-11T13:07:16.845Z,11.60
2018-03-11T13:09:45.157Z,11.20
2018-03-11T13:12:13.497Z,11.87
2018-03-11T13:14:43.314Z,10.97
2018-03-11T13:17:12.411Z,10.90
2018-03-11T13:19:41.537Z,10.80
2018-03-11T13:22:09.977Z,10.80
2018-03-11T13:24:38.313Z,11.90
2018-03-11T13:27:06.630Z,10.83
2018-03-11T13:29:35.673Z,11.13
2018-03-11T13:32:21.610Z,10.00
2018-03-11T13:34:49.921Z,11.17
2018-03-11T13:37:19.013Z,10.53
2018-03-11T13:40:05.676Z,10.00
2018-03-11T13:42:33.981Z,10.27
2018-03-11T13:45:20.259Z,10.03
2018-03-11T13:47:48.586Z,9.97
2018-03-11T13:50:16.905Z,10.20
2018-03-11T13:53:03.102Z,9.80
2018-03-11T13:55:31.523Z,9.87
2018-03-11T13:58:17.301Z,10.30
2018-03-11T14:00:45.619Z,11.40
2018-03-11T14:03:13.978Z,9.10
2018-03-11T14:05:43.058Z,11.23
2018-03-11T14:08:11.432Z,11.27
2018-03-11T14:10:39.934Z,10.17
2018-03-11T14:13:08.251Z,10.53
2018-03-11T14:15:36.594Z,9.40
2018-03-11T14:18:04.973Z,10.60
2018-03-11T14:20:33.316Z,11.30
2018-03-11T14:23:01.629Z,10.67
2018-03-11T14:25:29.951Z,11.03
2018-03-11T14:27:58.348Z,10.67
2018-03-11T14:30:26.825Z,10.80
2018-03-11T14:32:55.177Z,11.30
2018-03-11T14:35:23.488Z,10.23
2018-03-11T14:37:52.449Z,8.70
2018-03-11T14:40:20.777Z,8.80
2018-03-11T14:42:49.101Z,9.10
2018-03-11T14:45:17.444Z,8.73
2018-03-11T14:47:45.764Z,8.50
2018-03-11T14:50:14.107Z,9.20
2018-03-11T14:52:42.510Z,9.40
2018-03-11T14:55:12.599Z,8.87
2018-03-11T14:57:41.831Z,7.43
2018-03-11T15:00:10.182Z,6.93
2018-03-11T15:02:39.307Z,7.93
2018-03-11T15:05:07.646Z,5.77
2018-03-11T15:07:35.971Z,7.77
2018-03-11T15:10:04.332Z,6.30
2018-03-11T15:12:33.456Z,6.07
2018-03-11T15:15:01.786Z,7.17
2018-03-11T15:17:30.117Z,7.30
2018-03-11T15:19:58.443Z,6.97
2018-03-11T15:22:26.758Z,6.53
2018-03-11T15:24:55.192Z,7.50
2018-03-11T15:27:23.489Z,7.17
2018-03-11T15:29:51.815Z,8.57
2018-03-11T15:32:20.893Z,8.20
2018-03-11T15:34:49.215Z,6.93
2018-03-11T15:37:17.573Z,7.43
2018-03-11T15:39:45.920Z,7.27
2018-03-11T15:42:14.257Z,6.47
2018-03-11T15:44:42.696Z,7.20
2018-03-11T15:47:11.070Z,6.33
2018-03-11T15:49:39.448Z,7.13
2018-03-11T15:52:07.734Z,8.17
2018-03-11T15:54:36.111Z,6.60
2018-03-11T15:57:04.451Z,5.33
2018-03-11T15:59:32.883Z,6.80
2018-03-11T16:02:01.222Z,7.60
2018-03-11T16:04:29.518Z,6.40
2018-03-11T16:06:57.931Z,5.93
2018-03-11T16:09:26.263Z,5.83
2018-03-11T16:11:54.631Z,6.17
2018-03-11T16:14:22.987Z,5.93
2018-03-11T16:16:52.100Z,6.10
2018-03-11T16:19:20.448Z,6.57
2018-03-11T16:21:48.820Z,5.83
2018-03-11T16:24:28.280Z,6.00
2018-03-11T16:26:46.252Z,5.20
2018-03-11T16:29:14.594Z,6.67
2018-03-11T16:31:43.038Z,6.17
2018-03-11T16:34:11.366Z,6.10
2018-03-11T16:36:39.692Z,8.17
2018-03-11T16:39:08.810Z,8.57
2018-03-11T16:41:38.061Z,5.90
2018-03-11T16:44:06.395Z,6.20
2018-03-11T16:46:34.754Z,5.90
2018-03-11T16:49:03.093Z,5.07
2018-03-11T16:51:31.443Z,7.07
2018-03-11T16:53:59.776Z,8.97
2018-03-11T16:56:28.900Z,7.27
2018-03-11T16:58:57.238Z,22.33
2018-03-11T17:01:25.586Z,103.47
2018-03-11T17:03:55.124Z,34.87
2018-03-11T17:06:23.498Z,9.30
2018-03-11T17:08:51.829Z,11.13
2018-03-11T17:11:20.148Z,8.80
2018-03-11T17:13:49.247Z,8.90
2018-03-11T17:16:18.402Z,10.73
2018-03-11T17:18:46.734Z,8.13
2018-03-11T17:21:15.065Z,10.37
2018-03-11T17:23:43.392Z,9.57
2018-03-11T17:26:13.375Z,11.80
2018-03-11T17:28:41.720Z,12.50
2018-03-11T17:31:10.081Z,11.50
2018-03-11T17:33:38.405Z,11.50
2018-03-11T17:36:06.704Z,10.70
2018-03-11T17:38:35.064Z,13.87
2018-03-11T17:41:03.406Z,10.27
2018-03-11T17:43:32.530Z,14.53
2018-03-11T17:46:00.880Z,14.23
2018-03-11T17:48:29.998Z,11.10
2018-03-11T17:50:59.100Z,12.30
2018-03-11T17:53:27.423Z,11.60
2018-03-11T17:55:55.757Z,12.50
2018-03-11T17:58:24.839Z,10.30
2018-03-11T18:00:54.460Z,10.60
2018-03-11T18:03:23.840Z,16.23
2018-03-11T18:05:54.726Z,15.90
2018-03-11T18:08:23.200Z,13.13
2018-03-11T18:10:51.625Z,13.70
2018-03-11T18:13:20.128Z,12.77
2018-03-11T18:15:48.469Z,13.87
2018-03-11T18:18:17.983Z,17.90
2018-03-11T18:20:46.459Z,14.57
2018-03-11T18:23:15.744Z,15.70
2018-03-11T18:25:45.021Z,14.40
2018-03-11T18:28:13.344Z,14.40
2018-03-11T18:30:41.931Z,17.57
2018-03-11T18:33:10.452Z,18.17
2018-03-11T18:35:39.606Z,16.17
2018-03-11T18:38:08.860Z,18.87
2018-03-11T18:40:37.190Z,17.87
2018-03-11T18:43:06.392Z,15.93
2018-03-11T18:45:35.762Z,15.77
2018-03-11T18:48:04.191Z,16.70
2018-03-11T18:50:33.287Z,20.80
2018-03-11T18:53:01.644Z,17.33
2018-03-11T18:55:30.188Z,15.90
2018-03-11T18:57:58.794Z,19.80
2018-03-11T19:00:27.398Z,18.23
2018-03-11T19:02:55.729Z,21.40
2018-03-11T19:05:24.265Z,18.97
2018-03-11T19:07:52.599Z,24.67
2018-03-11T19:10:21.194Z,21.57
2018-03-11T19:12:49.788Z,22.90
2018-03-11T19:15:18.152Z,23.67
2018-03-11T19:17:47.573Z,24.53
2018-03-11T19:20:15.927Z,34.33
2018-03-11T19:22:45.362Z,33.70
2018-03-11T19:25:19.149Z,34.20
2018-03-11T19:27:47.492Z,30.00
2018-03-11T19:30:15.810Z,35.17
2018-03-11T19:32:44.963Z,30.03
2018-03-11T19:35:13.298Z,32.60
2018-03-11T19:37:42.371Z,33.87
2018-03-11T19:40:10.721Z,32.43
2018-03-11T19:42:39.028Z,32.20
2018-03-11T19:45:07.338Z,31.90
2018-03-11T19:47:36.415Z,32.50
2018-03-11T19:50:04.797Z,33.97
2018-03-11T19:52:33.113Z,34.70
2018-03-11T19:55:02.200Z,33.43
2018-03-11T19:57:31.344Z,33.00
2018-03-11T19:59:59.691Z,32.17
2018-03-11T20:02:28.780Z,34.53
2018-03-11T20:04:57.094Z,33.60
2018-03-11T20:07:25.399Z,34.73
2018-03-11T20:09:53.705Z,32.90
2018-03-11T20:12:22.014Z,32.60
2018-03-11T20:14:51.101Z,39.47
2018-03-11T20:17:19.425Z,36.07
2018-03-11T20:19:47.737Z,33.13
2018-03-11T20:22:16.069Z,36.53
2018-03-11T20:24:45.135Z,40.30
2018-03-11T20:27:13.617Z,35.40
2018-03-11T20:29:41.917Z,38.73
2018-03-11T20:32:10.247Z,40.70
2018-03-11T20:34:38.538Z,40.70
2018-03-11T20:37:06.869Z,42.60
2018-03-11T20:39:35.947Z,41.10
2018-03-11T20:42:04.254Z,42.10
2018-03-11T20:44:33.334Z,38.80
2018-03-11T20:47:01.714Z,42.70
2018-03-11T20:49:30.035Z,41.90
2018-03-11T20:51:58.341Z,49.77
2018-03-11T20:54:26.759Z,45.03
2018-03-11T20:56:55.081Z,47.90
2018-03-11T20:59:23.387Z,46.53
2018-03-11T21:01:51.774Z,40.20
2018-03-11T21:04:20.079Z,44.80
2018-03-11T21:06:48.404Z,49.10
2018-03-11T21:09:17.476Z,44.77
2018-03-11T21:11:45.778Z,47.83
2018-03-11T21:14:15.221Z,45.17
2018-03-11T21:16:43.525Z,43.60
2018-03-11T21:19:11.837Z,45.67
2018-03-11T21:21:40.303Z,46.80
2018-03-11T21:24:08.620Z,48.37
2018-03-11T21:26:37.697Z,51.03
2018-03-11T21:29:06.010Z,50.03
2018-03-11T21:31:35.107Z,47.50
2018-03-11T21:34:04.190Z,49.07
2018-03-11T21:36:32.508Z,52.37
2018-03-11T21:39:00.821Z,53.90
2018-03-11T21:41:29.897Z,49.60
2018-03-11T21:43:58.245Z,46.43
2018-03-11T21:46:27.330Z,43.70
2018-03-11T21:48:55.645Z,49.27
2018-03-11T21:51:23.968Z,52.53
2018-03-11T21:53:52.319Z,55.53
2018-03-11T21:56:20.631Z,56.60
2018-03-11T21:58:48.947Z,50.93
2018-03-11T22:01:17.269Z,53.63
2018-03-11T22:03:45.654Z,59.80
2018-03-11T22:06:14.015Z,54.27
2018-03-11T22:08:43.092Z,59.77
2018-03-11T22:11:11.395Z,63.70
2018-03-11T22:13:40.717Z,58.40
2018-03-11T22:16:09.021Z,57.47
2018-03-11T22:18:37.337Z,73.73
2018-03-11T22:21:05.647Z,72.33
2018-03-11T22:23:34.740Z,54.93
2018-03-11T22:26:03.059Z,58.67
2018-03-11T22:28:31.371Z,68.10
2018-03-11T22:30:59.693Z,73.57
2018-03-11T22:33:28.781Z,62.70
2018-03-11T22:35:57.853Z,72.10
2018-03-11T22:38:26.157Z,73.83
2018-03-11T22:40:54.485Z,64.63
2018-03-11T22:43:22.797Z,70.07
2018-03-11T22:45:51.101Z,67.60
2018-03-11T22:48:20.195Z,76.07
2018-03-11T22:50:48.499Z,63.83
2018-03-11T22:53:17.591Z,74.27
2018-03-11T22:55:46.669Z,82.50
2018-03-11T22:58:14.972Z,62.77
2018-03-11T23:00:44.060Z,63.63
2018-03-11T23:03:12.375Z,53.70
2018-03-11T23:05:40.708Z,47.80
2018-03-11T23:08:09.045Z,40.97
2018-03-11T23:10:37.398Z,38.47
2018-03-11T23:13:06.465Z,39.00
2018-03-11T23:15:34.807Z,34.40
2018-03-11T23:18:03.125Z,28.53
2018-03-11T23:20:31.442Z,24.87
2018-03-11T23:23:00.515Z,21.13
2018-03-11T23:25:28.875Z,18.93
2018-03-11T23:27:57.200Z,18.37
2018-03-11T23:30:25.516Z,17.97
2018-03-11T23:32:53.813Z,20.57
2018-03-11T23:35:22.124Z,19.00
2018-03-11T23:37:50.445Z,20.20
2018-03-11T23:40:19.528Z,18.83
2018-03-11T23:42:47.865Z,19.20
2018-03-11T23:45:16.176Z,18.00
2018-03-11T23:47:44.501Z,19.60
2018-03-11T23:50:12.816Z,20.30
2018-03-11T23:52:41.133Z,19.87
2018-03-11T23:55:09.465Z,19.87
2018-03-11T23:57:37.787Z,20.70
